Time;durP1;ratioP1;P1;durP2;ratioP2;P2;SDS_P1;SDS_P2;PMS_P1;PMS_P2;Temp;Humidity;BMP_temperature;BMP_pressure;BME280_temperature;BME280_humidity;BME280_pressure;Samples;Min_cycle;Max_cycle;Signal;HPM_P1;HPM_P2
2022/03/28 00:01:54;;;;;;;16.15;9.43;;;;;;;;;;5086475;28;20073;-60
2022/03/28 00:04:20;;;;;;;10.50;7.38;;;;;;;;;;5086423;28;20079;-60
2022/03/28 00:06:47;;;;;;;15.63;9.45;;;;;;;;;;5085966;28;20112;-59
2022/03/28 00:09:13;;;;;;;16.70;8.15;;;;;;;;;;5086491;28;20044;-60
2022/03/28 00:11:39;;;;;;;15.15;8.38;;;;;;;;;;5086217;28;20094;-60
2022/03/28 00:14:05;;;;;;;13.27;8.48;;;;;;;;;;5094706;28;20118;-59
2022/03/28 00:16:32;;;;;;;15.05;8.40;;;;;;;;;;5106374;28;20044;-59
2022/03/28 00:18:58;;;;;;;14.77;7.68;;;;;;;;;;5106215;28;20096;-60
2022/03/28 00:21:25;;;;;;;16.08;9.15;;;;;;;;;;5105821;28;20048;-60
2022/03/28 00:23:51;;;;;;;13.55;7.78;;;;;;;;;;5106523;28;20089;-60
2022/03/28 00:26:18;;;;;;;15.60;8.02;;;;;;;;;;5106370;28;20040;-60
2022/03/28 00:28:44;;;;;;;7.72;6.78;;;;;;;;;;5106616;28;20068;-60
2022/03/28 00:31:10;;;;;;;13.18;7.50;;;;;;;;;;5103689;28;20767;-59
2022/03/28 00:33:36;;;;;;;14.07;6.93;;;;;;;;;;5086993;28;20040;-60
2022/03/28 00:36:02;;;;;;;16.63;6.78;;;;;;;;;;5085554;28;20053;-60
2022/03/28 00:38:29;;;;;;;8.85;6.97;;;;;;;;;;5086256;28;20040;-60
2022/03/28 00:40:55;;;;;;;12.82;6.80;;;;;;;;;;5086153;28;20097;-59
2022/03/28 00:43:21;;;;;;;13.38;7.22;;;;;;;;;;5085767;28;20070;-61
2022/03/28 00:45:47;;;;;;;11.07;7.00;;;;;;;;;;5085720;28;20568;-59
2022/03/28 00:48:13;;;;;;;9.20;6.20;;;;;;;;;;5090447;28;20126;-60
2022/03/28 00:50:40;;;;;;;9.63;7.03;;;;;;;;;;5106021;28;20125;-59
2022/03/28 00:53:09;;;;;;;13.13;7.63;;;;;;;;;;5105308;28;20100;-59
2022/03/28 00:55:35;;;;;;;8.93;6.57;;;;;;;;;;5106119;28;20090;-59
2022/03/28 00:58:02;;;;;;;12.63;7.00;;;;;;;;;;5088399;28;20403;-59
2022/03/28 01:00:28;;;;;;;15.15;7.13;;;;;;;;;;5085417;28;20052;-59
2022/03/28 01:02:55;;;;;;;12.98;7.70;;;;;;;;;;5085042;28;20044;-60
2022/03/28 01:05:21;;;;;;;14.27;7.00;;;;;;;;;;5098409;28;20093;-59
2022/03/28 01:07:47;;;;;;;14.55;7.45;;;;;;;;;;5104956;28;20305;-59
2022/03/28 01:10:13;;;;;;;11.30;7.15;;;;;;;;;;5105863;28;20102;-59
2022/03/28 01:12:44;;;;;;;11.95;8.52;;;;;;;;;;5105442;28;20048;-59
2022/03/28 01:15:12;;;;;;;11.20;7.57;;;;;;;;;;5105341;28;20079;-59
2022/03/28 01:20:31;;;;;;;10.77;7.25;;;;;;;;;;5100409;28;20039;-59
2022/03/28 01:22:57;;;;;;;10.27;6.82;;;;;;;;;;5084471;28;20056;-59
2022/03/28 01:25:24;;;;;;;15.73;8.05;;;;;;;;;;5085079;28;20105;-59
2022/03/28 01:27:52;;;;;;;17.38;8.52;;;;;;;;;;5084041;28;20059;-59
2022/03/28 01:30:18;;;;;;;;;;;;;;;;;;5085425;28;20076;-59
2022/03/28 01:32:46;;;;;;;14.13;8.90;;;;;;;;;;5084350;28;19931;-60
2022/03/28 01:35:12;;;;;;;15.90;8.07;;;;;;;;;;5084707;28;20053;-60
2022/03/28 01:37:38;;;;;;;15.80;8.63;;;;;;;;;;5085222;28;20052;-59
2022/03/28 01:40:05;;;;;;;16.98;8.77;;;;;;;;;;5100377;28;20055;-59
2022/03/28 01:42:31;;;;;;;18.95;9.55;;;;;;;;;;5084819;28;20067;-59
2022/03/28 01:44:57;;;;;;;20.38;9.95;;;;;;;;;;5084655;28;20108;-59
2022/03/28 01:47:26;;;;;;;28.25;10.30;;;;;;;;;;5084606;28;20050;-59
2022/03/28 01:49:53;;;;;;;20.70;10.52;;;;;;;;;;5084281;28;20041;-59
2022/03/28 01:52:19;;;;;;;21.00;9.43;;;;;;;;;;5083862;28;20199;-59
2022/03/28 01:54:45;;;;;;;12.52;8.90;;;;;;;;;;5085945;28;20044;-60
2022/03/28 01:57:11;;;;;;;14.07;9.05;;;;;;;;;;5084926;28;20055;-60
2022/03/28 01:59:37;;;;;;;13.85;8.85;;;;;;;;;;5095498;28;20078;-59
2022/03/28 02:02:04;;;;;;;13.45;7.50;;;;;;;;;;5104568;28;20048;-59
2022/03/28 02:04:32;;;;;;;16.30;7.95;;;;;;;;;;5089855;28;20040;-60
2022/03/28 02:06:58;;;;;;;15.25;8.40;;;;;;;;;;5082349;28;20151;-60
2022/03/28 02:09:24;;;;;;;13.50;8.40;;;;;;;;;;5084339;28;20059;-61
2022/03/28 02:11:50;;;;;;;19.20;8.07;;;;;;;;;;5088864;28;20556;-60
2022/03/28 02:14:16;;;;;;;14.90;7.95;;;;;;;;;;5096806;28;20052;-60
2022/03/28 02:16:42;;;;;;;14.63;9.13;;;;;;;;;;5104139;28;20047;-59
2022/03/28 02:19:08;;;;;;;51.47;11.00;;;;;;;;;;5104299;28;20066;-61
2022/03/28 02:21:34;;;;;;;20.10;10.30;;;;;;;;;;5100224;28;20430;-59
2022/03/28 02:24:00;;;;;;;16.35;10.32;;;;;;;;;;5091481;28;20107;-59
2022/03/28 02:26:27;;;;;;;19.80;9.55;;;;;;;;;;5104255;28;20082;-59
2022/03/28 02:28:53;;;;;;;19.33;8.88;;;;;;;;;;5102954;28;20040;-59
2022/03/28 02:31:19;;;;;;;17.73;9.70;;;;;;;;;;5104229;28;20044;-59
2022/03/28 02:33:45;;;;;;;19.02;10.38;;;;;;;;;;5094526;28;20040;-60
2022/03/28 02:36:12;;;;;;;18.27;9.55;;;;;;;;;;5083449;28;20153;-60
2022/03/28 02:38:38;;;;;;;23.98;10.07;;;;;;;;;;5084085;28;20071;-60
2022/03/28 02:41:04;;;;;;;20.10;10.23;;;;;;;;;;5083879;28;20044;-60
2022/03/28 02:43:30;;;;;;;17.10;9.10;;;;;;;;;;5103767;28;20054;-60
2022/03/28 02:45:56;;;;;;;16.75;9.18;;;;;;;;;;5104063;28;20131;-59
2022/03/28 02:48:22;;;;;;;23.27;9.60;;;;;;;;;;5103877;28;20113;-60
2022/03/28 02:50:49;;;;;;;12.57;7.80;;;;;;;;;;5104094;28;20048;-60
2022/03/28 02:53:16;;;;;;;11.73;8.03;;;;;;;;;;5085724;28;20096;-59
2022/03/28 02:55:42;;;;;;;12.30;7.60;;;;;;;;;;5083499;28;20048;-60
2022/03/28 02:58:08;;;;;;;10.82;6.90;;;;;;;;;;5083753;28;20049;-64
2022/03/28 03:00:35;;;;;;;12.07;6.85;;;;;;;;;;5083888;28;20107;-60
2022/03/28 03:03:01;;;;;;;9.35;5.85;;;;;;;;;;5098669;28;20055;-59
2022/03/28 03:05:27;;;;;;;9.82;5.88;;;;;;;;;;5104365;28;20040;-61
2022/03/28 03:07:54;;;;;;;13.63;5.75;;;;;;;;;;5103078;28;20112;-60
2022/03/28 03:10:20;;;;;;;14.35;7.63;;;;;;;;;;5103903;28;20496;-59
2022/03/28 03:12:46;;;;;;;16.10;8.55;;;;;;;;;;5090212;28;20040;-60
2022/03/28 03:15:12;;;;;;;16.38;8.82;;;;;;;;;;5083515;28;20047;-59
2022/03/28 03:17:38;;;;;;;16.27;8.50;;;;;;;;;;5083433;28;20052;-60
2022/03/28 03:20:05;;;;;;;17.40;8.77;;;;;;;;;;5083563;28;20052;-60
2022/03/28 03:22:31;;;;;;;14.02;8.57;;;;;;;;;;5083822;28;20137;-59
2022/03/28 03:24:57;;;;;;;17.63;7.65;;;;;;;;;;5083371;28;20045;-59
2022/03/28 03:27:23;;;;;;;16.48;8.45;;;;;;;;;;5083295;28;20045;-60
2022/03/28 03:29:50;;;;;;;21.95;8.43;;;;;;;;;;5084539;28;20070;-59
2022/03/28 03:32:16;;;;;;;14.05;6.80;;;;;;;;;;5083472;28;20051;-61
2022/03/28 03:34:42;;;;;;;11.98;6.95;;;;;;;;;;5083460;28;20036;-60
2022/03/28 03:37:08;;;;;;;12.65;6.22;;;;;;;;;;5087950;28;20070;-60
2022/03/28 03:39:35;;;;;;;11.98;6.32;;;;;;;;;;5092014;28;20104;-59
2022/03/28 03:42:01;;;;;;;10.30;6.05;;;;;;;;;;5083410;28;20096;-60
2022/03/28 03:44:27;;;;;;;8.88;5.20;;;;;;;;;;5083322;28;20096;-60
2022/03/28 03:46:54;;;;;;;9.63;5.50;;;;;;;;;;5086391;28;20107;-59
2022/03/28 03:49:20;;;;;;;7.10;4.65;;;;;;;;;;5103469;28;20085;-60
2022/03/28 03:51:46;;;;;;;6.07;4.20;;;;;;;;;;5106522;28;20044;-60
2022/03/28 03:54:13;;;;;;;8.68;4.32;;;;;;;;;;5106938;28;20069;-60
2022/03/28 03:56:39;;;;;;;10.65;4.47;;;;;;;;;;5105993;28;20048;-59
2022/03/28 03:59:05;;;;;;;9.60;4.72;;;;;;;;;;5086604;28;20045;-59
2022/03/28 04:01:32;;;;;;;9.07;4.78;;;;;;;;;;5086949;28;20045;-60
2022/03/28 04:03:58;;;;;;;7.60;4.15;;;;;;;;;;5086436;28;20100;-60
2022/03/28 04:06:24;;;;;;;8.40;4.40;;;;;;;;;;5097626;28;20427;-60
2022/03/28 04:08:52;;;;;;;9.23;4.53;;;;;;;;;;5106729;28;20044;-60
2022/03/28 04:11:18;;;;;;;9.00;4.70;;;;;;;;;;5106729;28;20104;-60
2022/03/28 04:13:44;;;;;;;10.60;4.70;;;;;;;;;;5097259;28;20091;-60
2022/03/28 04:16:11;;;;;;;10.15;4.35;;;;;;;;;;5093459;28;20076;-60
2022/03/28 04:18:37;;;;;;;10.07;4.60;;;;;;;;;;5085382;28;20124;-60
2022/03/28 04:21:03;;;;;;;12.90;4.40;;;;;;;;;;5097444;28;20055;-60
2022/03/28 04:23:29;;;;;;;10.60;3.33;;;;;;;;;;5096553;28;20028;-58
2022/03/28 04:25:55;;;;;;;6.18;3.10;;;;;;;;;;5095136;28;20067;-59
2022/03/28 04:28:21;;;;;;;5.95;2.85;;;;;;;;;;5100128;28;20538;-60
2022/03/28 04:30:49;;;;;;;6.03;3.22;;;;;;;;;;5105186;28;20141;-59
2022/03/28 04:33:15;;;;;;;6.28;2.88;;;;;;;;;;5106108;28;20044;-60
2022/03/28 04:35:43;;;;;;;3.88;2.25;;;;;;;;;;5105409;28;20170;-60
2022/03/28 04:38:09;;;;;;;6.93;3.30;;;;;;;;;;5104628;28;20071;-59
2022/03/28 04:40:36;;;;;;;7.82;3.22;;;;;;;;;;5103999;28;20051;-59
2022/03/28 04:43:03;;;;;;;5.35;3.17;;;;;;;;;;5085574;28;20049;-59
2022/03/28 04:45:30;;;;;;;9.35;3.55;;;;;;;;;;5094999;28;20124;-59
2022/03/28 04:47:56;;;;;;;9.93;3.95;;;;;;;;;;5102728;28;20203;-62
2022/03/28 04:50:22;;;;;;;6.90;3.55;;;;;;;;;;5085701;28;20104;-59
2022/03/28 04:52:48;;;;;;;9.02;4.45;;;;;;;;;;5084834;28;20052;-59
2022/03/28 04:55:14;;;;;;;10.02;5.78;;;;;;;;;;5089456;28;20044;-59
2022/03/28 04:57:41;;;;;;;9.77;6.15;;;;;;;;;;5087372;28;20044;-59
2022/03/28 05:00:08;;;;;;;10.27;6.07;;;;;;;;;;5102082;28;20113;-59
2022/03/28 05:02:34;;;;;;;;;;;;;;;;;;5106062;28;20121;-59
2022/03/28 05:05:02;;;;;;;15.02;8.02;;;;;;;;;;5105496;28;19924;-59
2022/03/28 05:07:31;;;;;;;;;;;;;;;;;;5104471;28;20060;-59
2022/03/28 05:09:58;;;;;;;23.25;8.75;;;;;;;;;;5105510;28;19920;-59
2022/03/28 05:12:25;;;;;;;17.67;9.30;;;;;;;;;;5105372;28;20059;-59
2022/03/28 05:14:51;;;;;;;27.65;10.48;;;;;;;;;;5105871;28;20047;-60
2022/03/28 05:17:24;;;;;;;21.63;9.98;;;;;;;;;;5105441;28;20048;-58
2022/03/28 05:19:51;;;;;;;21.20;10.20;;;;;;;;;;5085380;28;20128;-59
2022/03/28 05:22:17;;;;;;;27.30;10.57;;;;;;;;;;5083002;28;20063;-59
2022/03/28 05:24:43;;;;;;;18.75;9.48;;;;;;;;;;5083691;28;20052;-59
2022/03/28 05:27:10;;;;;;;28.10;10.57;;;;;;;;;;5085069;28;20083;-60
2022/03/28 05:29:36;;;;;;;16.42;8.27;;;;;;;;;;5102231;28;20095;-59
2022/03/28 05:32:03;;;;;;;20.92;9.40;;;;;;;;;;5105044;28;20082;-59
2022/03/28 05:34:30;;;;;;;23.08;10.07;;;;;;;;;;5104870;28;20040;-60
2022/03/28 05:36:59;;;;;;;19.90;10.25;;;;;;;;;;5104493;28;20040;-60
2022/03/28 05:39:26;;;;;;;17.33;9.60;;;;;;;;;;5089687;28;20104;-58
2022/03/28 05:41:52;;;;;;;17.55;8.55;;;;;;;;;;5084645;28;20060;-59
2022/03/28 05:44:19;;;;;;;17.15;9.27;;;;;;;;;;5084954;28;20048;-60
2022/03/28 05:46:46;;;;;;;23.30;10.68;;;;;;;;;;5086433;28;20052;-59
2022/03/28 05:49:12;;;;;;;24.33;11.33;;;;;;;;;;5104620;28;20119;-59
2022/03/28 05:51:39;;;;;;;18.88;10.95;;;;;;;;;;5104182;28;20293;-60
2022/03/28 05:54:05;;;;;;;23.50;13.30;;;;;;;;;;5104661;28;20040;-60
2022/03/28 05:56:31;;;;;;;21.80;13.00;;;;;;;;;;5104583;28;20075;-61
2022/03/28 05:58:58;;;;;;;20.45;11.93;;;;;;;;;;5084985;28;20048;-61
2022/03/28 06:01:24;;;;;;;20.73;13.23;;;;;;;;;;5084345;28;20044;-59
2022/03/28 06:03:50;;;;;;;22.13;13.60;;;;;;;;;;5083952;28;20456;-60
2022/03/28 06:06:17;;;;;;;20.20;13.57;;;;;;;;;;5083728;28;20087;-60
2022/03/28 06:08:43;;;;;;;22.98;13.50;;;;;;;;;;5104344;28;20040;-59
2022/03/28 06:11:10;;;;;;;18.73;11.43;;;;;;;;;;5085375;28;20056;-61
2022/03/28 06:13:36;;;;;;;16.80;10.85;;;;;;;;;;5094206;28;20040;-60
2022/03/28 06:16:03;;;;;;;18.80;11.98;;;;;;;;;;5104257;28;20051;-60
2022/03/28 06:18:30;;;;;;;18.17;11.18;;;;;;;;;;5103149;28;20071;-60
2022/03/28 06:20:56;;;;;;;18.25;9.65;;;;;;;;;;5089075;28;20116;-60
2022/03/28 06:23:22;;;;;;;13.45;10.20;;;;;;;;;;5084048;28;20199;-60
2022/03/28 06:25:48;;;;;;;14.35;10.07;;;;;;;;;;5084257;28;20075;-60
2022/03/28 06:28:15;;;;;;;17.70;11.65;;;;;;;;;;5084075;28;20120;-60
2022/03/28 06:30:42;;;;;;;15.15;9.85;;;;;;;;;;5094022;28;20040;-60
2022/03/28 06:33:08;;;;;;;14.45;11.02;;;;;;;;;;5103720;28;20040;-60
2022/03/28 06:35:34;;;;;;;12.73;9.77;;;;;;;;;;5104167;28;20043;-60
2022/03/28 06:38:00;;;;;;;14.90;10.13;;;;;;;;;;5103607;28;20478;-60
2022/03/28 06:40:27;;;;;;;15.82;10.30;;;;;;;;;;5096257;28;20115;-60
2022/03/28 06:42:54;;;;;;;14.93;10.75;;;;;;;;;;5083800;28;20074;-60
2022/03/28 06:45:21;;;;;;;15.43;10.23;;;;;;;;;;5083984;28;20041;-60
2022/03/28 06:47:51;;;;;;;12.70;10.17;;;;;;;;;;5083850;28;20049;-60
2022/03/28 06:50:18;;;;;;;12.55;10.25;;;;;;;;;;5087611;28;20302;-61
2022/03/28 06:52:44;;;;;;;15.60;9.80;;;;;;;;;;5103004;28;20444;-60
2022/03/28 06:55:10;;;;;;;11.00;9.32;;;;;;;;;;5103909;28;20047;-59
2022/03/28 06:57:37;;;;;;;17.63;10.82;;;;;;;;;;5103780;28;20044;-59
2022/03/28 07:00:04;;;;;;;15.98;11.02;;;;;;;;;;5086295;28;20052;-59
2022/03/28 07:02:30;;;;;;;19.57;13.33;;;;;;;;;;5082514;28;20045;-61
2022/03/28 07:04:57;;;;;;;22.90;13.82;;;;;;;;;;5083557;28;20124;-58
2022/03/28 07:07:24;;;;;;;18.25;11.98;;;;;;;;;;5083136;28;20086;-60
2022/03/28 07:09:50;;;;;;;19.40;13.00;;;;;;;;;;5096983;28;20078;-61
2022/03/28 07:12:16;;;;;;;17.88;12.50;;;;;;;;;;5096346;28;20041;-59
2022/03/28 07:14:43;;;;;;;14.68;10.93;;;;;;;;;;5094381;28;20032;-58
2022/03/28 07:17:10;;;;;;;13.35;10.18;;;;;;;;;;5094734;28;20422;-59
2022/03/28 07:19:36;;;;;;;16.50;10.82;;;;;;;;;;5090807;28;20066;-59
2022/03/28 07:22:04;;;;;;;17.90;12.98;;;;;;;;;;5101943;28;20048;-59
2022/03/28 07:24:30;;;;;;;21.20;13.88;;;;;;;;;;5102665;28;20461;-58
2022/03/28 07:26:56;;;;;;;23.30;16.45;;;;;;;;;;5101667;28;20048;-59
2022/03/28 07:29:22;;;;;;;25.23;15.05;;;;;;;;;;5106227;28;20066;-59
2022/03/28 07:31:49;;;;;;;21.05;14.63;;;;;;;;;;5106878;28;20051;-60
2022/03/28 07:34:30;;;;;;;20.70;12.55;;;;;;;;;;5107391;28;20044;-60
2022/03/28 07:37:02;;;;;;;20.75;14.20;;;;;;;;;;5102775;28;20041;-60
2022/03/28 07:39:28;;;;;;;21.88;13.10;;;;;;;;;;5100952;28;20044;-60
2022/03/28 07:41:54;;;;;;;17.83;12.38;;;;;;;;;;5098368;28;20041;-60
2022/03/28 07:44:21;;;;;;;17.90;12.57;;;;;;;;;;5102563;28;20071;-60
2022/03/28 07:46:47;;;;;;;22.20;15.75;;;;;;;;;;5096890;28;20040;-59
2022/03/28 07:49:13;;;;;;;27.08;17.27;;;;;;;;;;5094548;28;20067;-59
2022/03/28 07:51:40;;;;;;;25.30;18.63;;;;;;;;;;5106349;28;20048;-60
2022/03/28 07:54:06;;;;;;;26.52;17.50;;;;;;;;;;5107302;28;20044;-60
2022/03/28 07:56:32;;;;;;;26.45;17.70;;;;;;;;;;5106092;28;20774;-59
2022/03/28 07:58:59;;;;;;;22.00;15.75;;;;;;;;;;5107049;28;20523;-59
2022/03/28 08:01:25;;;;;;;27.17;15.60;;;;;;;;;;5098814;28;20040;-61
2022/03/28 08:03:52;;;;;;;25.27;14.52;;;;;;;;;;5097793;28;20046;-61
2022/03/28 08:06:18;;;;;;;25.08;13.80;;;;;;;;;;5098006;28;20161;-58
2022/03/28 08:08:44;;;;;;;18.40;13.85;;;;;;;;;;5097152;28;20055;-60
2022/03/28 08:11:11;;;;;;;16.95;13.57;;;;;;;;;;5105549;28;20044;-59
2022/03/28 08:13:37;;;;;;;21.17;14.38;;;;;;;;;;5097343;28;20048;-60
2022/03/28 08:16:04;;;;;;;23.30;14.23;;;;;;;;;;5105543;28;20116;-61
2022/03/28 08:18:31;;;;;;;23.93;13.93;;;;;;;;;;5091811;28;20122;-60
2022/03/28 08:20:57;;;;;;;17.55;14.35;;;;;;;;;;5097045;28;20279;-60
2022/03/28 08:23:23;;;;;;;18.63;15.00;;;;;;;;;;5087486;28;20123;-59
2022/03/28 08:25:50;;;;;;;17.40;14.10;;;;;;;;;;5096238;28;20122;-59
2022/03/28 08:28:16;;;;;;;16.70;14.52;;;;;;;;;;5101708;28;20048;-60
2022/03/28 08:30:43;;;;;;;17.73;13.70;;;;;;;;;;5103431;28;20123;-59
2022/03/28 08:33:09;;;;;;;17.02;13.82;;;;;;;;;;5102642;28;20167;-59
2022/03/28 08:35:35;;;;;;;25.52;16.40;;;;;;;;;;5101428;28;20063;-59
2022/03/28 08:38:01;;;;;;;23.90;17.02;;;;;;;;;;5101736;28;20122;-59
2022/03/28 08:40:27;;;;;;;26.33;17.60;;;;;;;;;;5101641;28;20500;-59
2022/03/28 08:42:53;;;;;;;21.88;15.02;;;;;;;;;;5102953;28;20047;-60
2022/03/28 08:45:20;;;;;;;20.58;16.33;;;;;;;;;;5094293;28;20057;-60
2022/03/28 08:47:47;;;;;;;28.23;17.13;;;;;;;;;;5104245;28;20055;-60
2022/03/28 08:50:15;;;;;;;26.83;18.17;;;;;;;;;;5101769;28;20078;-61
2022/03/28 08:52:42;;;;;;;26.88;16.65;;;;;;;;;;5107015;28;20036;-64
2022/03/28 08:55:09;;;;;;;21.83;16.45;;;;;;;;;;5096865;28;20047;-64
2022/03/28 08:57:35;;;;;;;23.47;18.20;;;;;;;;;;5105298;28;20071;-65
2022/03/28 09:00:02;;;;;;;22.17;15.65;;;;;;;;;;5105766;28;20063;-64
2022/03/28 09:02:42;;;;;;;19.60;15.77;;;;;;;;;;5093827;28;20032;-64
2022/03/28 09:05:11;;;;;;;23.30;16.20;;;;;;;;;;5097206;28;20410;-63
2022/03/28 09:07:37;;;;;;;22.80;15.75;;;;;;;;;;5103996;28;20063;-64
2022/03/28 09:10:06;;;;;;;18.52;15.05;;;;;;;;;;5094843;28;20077;-63
2022/03/28 09:12:33;;;;;;;23.33;15.18;;;;;;;;;;5104931;28;20490;-64
2022/03/28 09:15:02;;;;;;;21.20;14.65;;;;;;;;;;5095496;28;20054;-63
2022/03/28 09:17:28;;;;;;;16.70;13.63;;;;;;;;;;5102716;28;20508;-65
2022/03/28 09:20:00;;;;;;;13.82;10.82;;;;;;;;;;5100862;28;20040;-64
2022/03/28 09:22:30;;;;;;;16.63;11.82;;;;;;;;;;5101726;28;20048;-63
2022/03/28 09:24:57;;;;;;;15.90;11.60;;;;;;;;;;5093653;28;20043;-62
2022/03/28 09:27:28;;;;;;;14.68;11.98;;;;;;;;;;5099867;28;20043;-62
2022/03/28 09:29:54;;;;;;;15.35;11.88;;;;;;;;;;5111997;28;20040;-66
2022/03/28 09:32:24;;;;;;;14.70;10.85;;;;;;;;;;5104647;28;20130;-63
2022/03/28 09:35:04;;;;;;;16.65;11.40;;;;;;;;;;5103246;28;20039;-63
2022/03/28 09:37:30;;;;;;;13.88;11.25;;;;;;;;;;5093233;28;20051;-60
2022/03/28 09:39:57;;;;;;;15.05;12.18;;;;;;;;;;5104386;28;20068;-59
2022/03/28 09:42:23;;;;;;;13.52;11.25;;;;;;;;;;5101162;28;20032;-60
2022/03/28 09:44:51;;;;;;;18.73;11.82;;;;;;;;;;5089873;28;20040;-63
2022/03/28 09:47:18;;;;;;;;;;;;;;;;;;5094586;28;20048;-63
2022/03/28 09:49:46;;;;;;;16.20;12.52;;;;;;;;;;5100809;28;19989;-62
2022/03/28 09:52:13;;;;;;;17.58;12.63;;;;;;;;;;5084552;28;20059;-62
2022/03/28 09:54:43;;;;;;;15.15;12.43;;;;;;;;;;5084396;28;20408;-62
2022/03/28 09:57:11;;;;;;;15.73;11.80;;;;;;;;;;5083034;28;20412;-62
2022/03/28 09:59:38;;;;;;;16.60;12.93;;;;;;;;;;5087887;28;20593;-62
2022/03/28 10:02:14;;;;;;;18.40;11.50;;;;;;;;;;5099462;28;20112;-63
2022/03/28 10:04:41;;;;;;;15.65;12.50;;;;;;;;;;5094949;28;20043;-61
2022/03/28 10:07:08;;;;;;;17.30;12.05;;;;;;;;;;5087898;28;20480;-65
2022/03/28 10:09:34;;;;;;;19.00;12.73;;;;;;;;;;5092771;28;20158;-62
2022/03/28 10:12:00;;;;;;;15.48;13.10;;;;;;;;;;5104936;28;20104;-62
2022/03/28 10:14:27;;;;;;;16.92;12.07;;;;;;;;;;5103990;28;20344;-66
2022/03/28 10:16:54;;;;;;;14.90;12.00;;;;;;;;;;5098077;28;20048;-67
2022/03/28 10:19:20;;;;;;;16.80;11.43;;;;;;;;;;5103095;28;20134;-62
2022/03/28 10:21:47;;;;;;;15.98;12.80;;;;;;;;;;5099085;28;20090;-64
2022/03/28 10:24:14;;;;;;;19.55;13.07;;;;;;;;;;5101721;28;20055;-62
2022/03/28 10:26:44;;;;;;;18.58;12.75;;;;;;;;;;5101998;28;20071;-63
2022/03/28 10:29:15;;;;;;;16.88;12.70;;;;;;;;;;5096435;28;20044;-66
2022/03/28 10:31:54;;;;;;;19.45;12.70;;;;;;;;;;5085887;28;20048;-69
2022/03/28 10:34:38;;;;;;;19.55;13.00;;;;;;;;;;5097608;28;20044;-68
2022/03/28 10:37:22;;;;;;;17.45;13.07;;;;;;;;;;5093212;28;20048;-66
2022/03/28 10:39:49;;;;;;;17.50;12.35;;;;;;;;;;5095802;28;20044;-69
2022/03/28 10:42:19;;;;;;;19.35;11.93;;;;;;;;;;5098073;28;20123;-68
2022/03/28 10:44:46;;;;;;;15.05;12.32;;;;;;;;;;5103055;28;20412;-67
2022/03/28 10:47:14;;;;;;;17.42;13.00;;;;;;;;;;5103887;28;20047;-67
2022/03/28 10:49:40;;;;;;;;;;;;;;;;;;5101538;28;20048;-67
2022/03/28 10:52:06;;;;;;;14.75;12.32;;;;;;;;;;5093594;28;19926;-62
2022/03/28 10:54:39;;;;;;;13.10;11.40;;;;;;;;;;5084694;28;20120;-63
2022/03/28 10:57:05;;;;;;;20.35;11.80;;;;;;;;;;5101224;28;20051;-62
2022/03/28 10:59:31;;;;;;;16.98;11.88;;;;;;;;;;5106109;28;20036;-63
2022/03/28 11:01:57;;;;;;;14.00;11.63;;;;;;;;;;5106179;28;20056;-67
2022/03/28 11:04:24;;;;;;;16.08;12.00;;;;;;;;;;5094588;28;20051;-63
2022/03/28 11:07:00;;;;;;;15.65;12.57;;;;;;;;;;5102548;28;20139;-63
2022/03/28 11:09:42;;;;;;;17.00;12.50;;;;;;;;;;5102834;28;20047;-61
2022/03/28 11:12:13;;;;;;;16.90;11.88;;;;;;;;;;5095617;28;20100;-64
2022/03/28 11:14:39;;;;;;;19.63;12.55;;;;;;;;;;5101845;28;20550;-65
2022/03/28 11:17:15;;;;;;;16.55;12.18;;;;;;;;;;5104357;28;20098;-68
2022/03/28 11:20:03;;;;;;;15.73;12.52;;;;;;;;;;5106899;28;20058;-65
2022/03/28 11:22:47;;;;;;;16.03;12.23;;;;;;;;;;5104980;28;20087;-66
2022/03/28 11:25:30;;;;;;;17.75;12.55;;;;;;;;;;5105927;28;20047;-68
2022/03/28 11:28:14;;;;;;;14.32;11.85;;;;;;;;;;5104810;28;20041;-66
2022/03/28 11:30:48;;;;;;;14.25;12.73;;;;;;;;;;5098888;28;20040;-66
2022/03/28 11:33:17;;;;;;;20.10;12.48;;;;;;;;;;5098152;28;20047;-63
2022/03/28 11:36:04;;;;;;;16.73;12.60;;;;;;;;;;5099976;28;20047;-62
2022/03/28 11:38:32;;;;;;;18.63;13.85;;;;;;;;;;5106697;28;20048;-64
2022/03/28 11:40:59;;;;;;;14.05;11.25;;;;;;;;;;5101851;28;20044;-63
2022/03/28 11:43:28;;;;;;;21.40;12.70;;;;;;;;;;5101965;28;20087;-64
2022/03/28 11:45:54;;;;;;;14.85;12.75;;;;;;;;;;5106970;28;20040;-65
2022/03/28 11:48:21;;;;;;;14.65;11.55;;;;;;;;;;5098867;28;20032;-64
2022/03/28 11:50:47;;;;;;;14.68;11.32;;;;;;;;;;5098157;28;20087;-63
2022/03/28 11:53:18;;;;;;;15.05;12.27;;;;;;;;;;5105873;28;20044;-64
2022/03/28 11:55:51;;;;;;;13.57;10.65;;;;;;;;;;5101605;28;20043;-66
2022/03/28 11:58:19;;;;;;;14.93;11.57;;;;;;;;;;5100425;28;20070;-66
2022/03/28 12:00:45;;;;;;;;;;;;;;;;;;5105627;28;20044;-64
2022/03/28 12:03:13;;;;;;;15.50;11.68;;;;;;;;;;5105975;28;19928;-63
2022/03/28 12:05:44;;;;;;;14.98;10.82;;;;;;;;;;5102888;28;20436;-62
2022/03/28 12:08:15;;;;;;;12.23;10.57;;;;;;;;;;5089586;28;20048;-62
2022/03/28 12:10:49;;;;;;;14.77;9.88;;;;;;;;;;5105178;28;20051;-63
2022/03/28 12:13:16;;;;;;;12.63;9.30;;;;;;;;;;5087903;28;20546;-62
2022/03/28 12:15:46;;;;;;;15.23;10.30;;;;;;;;;;5100138;28;20047;-62
2022/03/28 12:18:13;;;;;;;10.77;9.68;;;;;;;;;;5097280;28;20033;-68
2022/03/28 12:20:40;;;;;;;11.98;9.95;;;;;;;;;;5094016;28;20052;-66
2022/03/28 12:23:07;;;;;;;13.32;10.32;;;;;;;;;;5098586;28;20044;-66
2022/03/28 12:25:39;;;;;;;13.57;9.47;;;;;;;;;;5092576;28;20040;-65
2022/03/28 12:28:10;;;;;;;13.02;9.15;;;;;;;;;;5089290;28;20044;-63
2022/03/28 12:30:41;;;;;;;13.70;9.30;;;;;;;;;;5085930;28;20075;-63
2022/03/28 12:33:18;;;;;;;15.10;8.57;;;;;;;;;;5086408;28;20044;-64
2022/03/28 12:35:46;;;;;;;11.75;8.27;;;;;;;;;;5100880;28;20096;-65
2022/03/28 12:38:15;;;;;;;10.77;8.02;;;;;;;;;;5104493;28;20044;-64
2022/03/28 12:40:44;;;;;;;11.85;9.77;;;;;;;;;;5102678;28;20044;-63
2022/03/28 12:43:11;;;;;;;12.13;9.15;;;;;;;;;;5089586;28;20048;-63
2022/03/28 12:45:38;;;;;;;13.02;8.73;;;;;;;;;;5087481;28;20115;-59
2022/03/28 12:48:06;;;;;;;;;;;;;;;;;;5094880;28;20036;-59
2022/03/28 12:50:32;;;;;;;13.18;9.13;;;;;;;;;;5095983;28;19932;-58
2022/03/28 12:53:14;;;;;;;12.98;9.50;;;;;;;;;;5100541;28;20044;-59
2022/03/28 12:55:43;;;;;;;13.25;9.25;;;;;;;;;;5105848;28;20043;-59
2022/03/28 12:58:10;;;;;;;11.63;9.55;;;;;;;;;;5105839;28;20092;-59
2022/03/28 13:00:36;;;;;;;12.88;8.88;;;;;;;;;;5087318;28;20048;-60
2022/03/28 13:03:03;;;;;;;17.20;9.52;;;;;;;;;;5090367;28;20040;-59
2022/03/28 13:05:34;;;;;;;14.63;9.30;;;;;;;;;;5083859;28;20496;-59
2022/03/28 13:08:10;;;;;;;13.73;8.85;;;;;;;;;;5099703;28;20423;-59
2022/03/28 13:10:38;;;;;;;11.07;8.88;;;;;;;;;;5103537;28;20091;-60
2022/03/28 13:13:05;;;;;;;13.00;9.57;;;;;;;;;;5105360;28;20046;-60
2022/03/28 13:15:35;;;;;;;20.33;10.50;;;;;;;;;;5105455;28;20059;-61
2022/03/28 13:18:12;;;;;;;16.65;9.80;;;;;;;;;;5105814;28;20043;-61
2022/03/28 13:20:39;;;;;;;12.80;9.30;;;;;;;;;;5088086;28;20052;-60
2022/03/28 13:23:19;;;;;;;10.68;8.40;;;;;;;;;;5084492;28;20040;-59
2022/03/28 13:25:46;;;;;;;11.50;8.60;;;;;;;;;;5083629;28;20033;-59
2022/03/28 13:28:22;;;;;;;13.20;9.13;;;;;;;;;;5084892;28;20045;-59
2022/03/28 13:30:51;;;;;;;13.52;9.48;;;;;;;;;;5084945;28;20090;-59
2022/03/28 13:33:18;;;;;;;14.02;9.63;;;;;;;;;;5084814;28;20173;-59
2022/03/28 13:35:48;;;;;;;13.95;9.45;;;;;;;;;;5084957;28;20459;-59
2022/03/28 13:38:15;;;;;;;12.65;9.02;;;;;;;;;;5088639;28;20043;-59
2022/03/28 13:40:42;;;;;;;14.18;9.68;;;;;;;;;;5095181;28;20050;-69
2022/03/28 13:43:10;;;;;;;12.77;9.45;;;;;;;;;;5096585;28;20577;-64
2022/03/28 13:45:37;;;;;;;13.07;9.30;;;;;;;;;;5083498;28;20048;-66
2022/03/28 13:48:05;;;;;;;14.77;9.83;;;;;;;;;;5084190;28;20072;-65
2022/03/28 13:50:32;;;;;;;15.50;9.90;;;;;;;;;;5089877;28;20085;-67
2022/03/28 13:52:59;;;;;;;11.50;8.93;;;;;;;;;;5102261;28;20058;-65
2022/03/28 13:55:25;;;;;;;19.10;10.15;;;;;;;;;;5087800;28;20339;-66
2022/03/28 13:57:52;;;;;;;14.35;10.07;;;;;;;;;;5094290;28;20049;-64
2022/03/28 14:00:21;;;;;;;13.43;9.75;;;;;;;;;;5100384;28;20522;-64
2022/03/28 14:02:48;;;;;;;13.02;9.02;;;;;;;;;;5089955;28;20052;-65
2022/03/28 14:05:14;;;;;;;21.35;10.57;;;;;;;;;;5100320;28;20037;-63
2022/03/28 14:07:40;;;;;;;16.98;10.88;;;;;;;;;;5085317;28;20127;-61
2022/03/28 14:10:07;;;;;;;14.00;10.48;;;;;;;;;;5089818;28;20065;-61
2022/03/28 14:12:34;;;;;;;13.68;10.52;;;;;;;;;;5096176;28;20032;-61
2022/03/28 14:15:01;;;;;;;16.10;11.38;;;;;;;;;;5094580;28;20142;-61
2022/03/28 14:17:28;;;;;;;15.45;10.80;;;;;;;;;;5085849;28;20084;-68
2022/03/28 14:19:55;;;;;;;17.95;11.43;;;;;;;;;;5099427;28;20074;-66
2022/03/28 14:22:22;;;;;;;16.53;11.97;;;;;;;;;;5101643;28;20067;-67
2022/03/28 14:24:48;;;;;;;17.58;12.00;;;;;;;;;;5101339;28;20290;-67
2022/03/28 14:27:15;;;;;;;20.02;12.65;;;;;;;;;;5098102;28;20040;-70
2022/03/28 14:29:43;;;;;;;13.15;11.75;;;;;;;;;;5095566;28;20077;-62
2022/03/28 14:32:09;;;;;;;15.13;11.85;;;;;;;;;;5094895;28;20100;-65